Time;durP1;ratioP1;P1;durP2;ratioP2;P2;SDS_P1;SDS_P2;PMS_P1;PMS_P2;Temp;Humidity;BMP_temperature;BMP_pressure;BME280_temperature;BME280_humidity;BME280_pressure;Samples;Min_cycle;Max_cycle;Signal;HPM_P1;HPM_P2
2022/03/04 00:01:20;;;;;;;34.53;19.73;;;;;;;;;;5034862;28;20204;-78
2022/03/04 00:03:49;;;;;;;31.30;19.07;;;;;;;;;;5033832;28;20567;-77
2022/03/04 00:06:17;;;;;;;30.30;19.23;;;;;;;;;;5034577;28;20289;-76
2022/03/04 00:08:45;;;;;;;32.23;19.50;;;;;;;;;;5037809;28;20611;-76
2022/03/04 00:11:15;;;;;;;32.80;20.13;;;;;;;;;;5034798;28;20259;-77
2022/03/04 00:13:44;;;;;;;34.23;20.57;;;;;;;;;;5034290;28;20204;-79
2022/03/04 00:16:12;;;;;;;33.20;19.40;;;;;;;;;;5034242;28;20605;-76
2022/03/04 00:18:40;;;;;;;33.83;20.70;;;;;;;;;;5034130;28;20243;-78
2022/03/04 00:21:09;;;;;;;32.17;19.03;;;;;;;;;;5034548;28;20254;-76
2022/03/04 00:23:38;;;;;;;32.90;20.20;;;;;;;;;;5033763;28;20207;-76
2022/03/04 00:26:07;;;;;;;34.53;19.13;;;;;;;;;;5033580;28;20224;-77
2022/03/04 00:28:36;;;;;;;32.93;19.50;;;;;;;;;;5034152;28;20204;-75
2022/03/04 00:31:05;;;;;;;31.97;19.87;;;;;;;;;;5033853;28;20377;-76
2022/03/04 00:33:33;;;;;;;33.27;20.40;;;;;;;;;;5034023;28;20295;-78
2022/03/04 00:36:02;;;;;;;36.63;21.43;;;;;;;;;;5033374;28;20219;-76
2022/03/04 00:38:31;;;;;;;36.73;20.80;;;;;;;;;;5035024;28;20647;-78
2022/03/04 00:41:00;;;;;;;34.27;21.23;;;;;;;;;;5053769;28;20199;-79
2022/03/04 00:43:28;;;;;;;35.70;21.13;;;;;;;;;;5050826;28;20208;-79
2022/03/04 00:45:58;;;;;;;34.30;20.87;;;;;;;;;;5033727;28;20201;-78
2022/03/04 00:48:26;;;;;;;33.73;21.17;;;;;;;;;;5050516;28;20211;-76
2022/03/04 00:50:55;;;;;;;37.27;21.60;;;;;;;;;;5074490;28;20210;-77
2022/03/04 00:53:24;;;;;;;35.87;20.33;;;;;;;;;;5074436;28;20327;-77
2022/03/04 00:55:52;;;;;;;35.40;21.03;;;;;;;;;;5050572;28;20221;-78
2022/03/04 00:58:21;;;;;;;35.57;21.50;;;;;;;;;;5034410;28;20204;-76
2022/03/04 01:00:49;;;;;;;40.03;22.40;;;;;;;;;;5034750;28;20203;-77
2022/03/04 01:03:19;;;;;;;37.43;22.07;;;;;;;;;;5033251;28;20240;-79
2022/03/04 01:05:48;;;;;;;36.67;21.50;;;;;;;;;;5033293;28;20262;-78
2022/03/04 01:08:16;;;;;;;39.30;23.27;;;;;;;;;;5034000;28;20209;-78
2022/03/04 01:10:45;;;;;;;33.43;20.00;;;;;;;;;;5051543;28;20204;-76
2022/03/04 01:13:14;;;;;;;33.97;20.23;;;;;;;;;;5046481;28;20295;-78
2022/03/04 01:15:42;;;;;;;37.77;20.67;;;;;;;;;;5041194;28;20216;-77
2022/03/04 01:18:11;;;;;;;35.43;20.37;;;;;;;;;;5033298;28;20211;-78
2022/03/04 01:20:41;;;;;;;32.53;20.13;;;;;;;;;;5033658;28;20204;-79
2022/03/04 01:23:10;;;;;;;37.37;20.47;;;;;;;;;;5033125;28;20211;-78
2022/03/04 01:25:38;;;;;;;33.63;20.70;;;;;;;;;;5052119;28;20207;-78
2022/03/04 01:28:06;;;;;;;36.33;21.20;;;;;;;;;;5033560;28;20207;-77
2022/03/04 01:30:35;;;;;;;36.47;20.87;;;;;;;;;;5040099;28;20199;-76
2022/03/04 01:33:03;;;;;;;33.63;20.23;;;;;;;;;;5052218;28;20658;-77
2022/03/04 01:35:32;;;;;;;37.47;21.07;;;;;;;;;;5034299;28;20227;-75
2022/03/04 01:38:02;;;;;;;38.37;21.13;;;;;;;;;;5051156;28;20226;-78
2022/03/04 01:40:30;;;;;;;38.17;21.67;;;;;;;;;;5052532;28;20203;-78
2022/03/04 01:42:59;;;;;;;42.00;23.43;;;;;;;;;;5053179;28;20223;-76
2022/03/04 01:45:27;;;;;;;38.37;21.53;;;;;;;;;;5042757;28;20214;-80
2022/03/04 01:47:56;;;;;;;39.53;22.13;;;;;;;;;;5052221;28;20223;-77
2022/03/04 01:50:24;;;;;;;42.23;21.53;;;;;;;;;;5037201;28;20547;-79
2022/03/04 01:52:53;;;;;;;38.10;22.30;;;;;;;;;;5048281;28;20247;-80
2022/03/04 01:55:23;;;;;;;41.83;23.57;;;;;;;;;;5036596;28;20209;-77
2022/03/04 01:57:51;;;;;;;42.23;21.90;;;;;;;;;;5033128;28;20232;-77
2022/03/04 02:00:19;;;;;;;42.43;23.60;;;;;;;;;;5041989;28;20208;-78
2022/03/04 02:02:48;;;;;;;43.00;22.87;;;;;;;;;;5048015;28;20220;-78
2022/03/04 02:05:18;;;;;;;40.20;21.50;;;;;;;;;;5033471;28;20223;-78
2022/03/04 02:07:46;;;;;;;37.70;21.80;;;;;;;;;;5042492;28;20222;-77
2022/03/04 02:10:14;;;;;;;36.40;21.93;;;;;;;;;;5047608;28;20203;-76
2022/03/04 02:12:44;;;;;;;41.10;22.07;;;;;;;;;;5052672;28;20215;-78
2022/03/04 02:15:13;;;;;;;40.00;23.03;;;;;;;;;;5046736;28;20200;-76
2022/03/04 02:17:41;;;;;;;39.13;22.23;;;;;;;;;;5034434;28;20223;-77
2022/03/04 02:20:10;;;;;;;43.97;21.97;;;;;;;;;;5036653;28;20674;-78
2022/03/04 02:22:40;;;;;;;37.73;22.60;;;;;;;;;;5037229;28;20215;-77
2022/03/04 02:25:09;;;;;;;44.23;23.73;;;;;;;;;;5049313;28;20202;-77
2022/03/04 02:27:38;;;;;;;40.93;23.27;;;;;;;;;;5068636;28;20213;-76
2022/03/04 02:30:10;;;;;;;39.43;23.23;;;;;;;;;;5036760;28;20208;-76
2022/03/04 02:32:38;;;;;;;46.40;23.77;;;;;;;;;;5037479;28;20675;-77
2022/03/04 02:35:07;;;;;;;42.93;22.50;;;;;;;;;;5049569;28;20199;-76
2022/03/04 02:37:36;;;;;;;45.57;24.17;;;;;;;;;;5037532;28;20219;-77
2022/03/04 02:40:06;;;;;;;40.80;22.97;;;;;;;;;;5052202;28;20265;-76
2022/03/04 02:42:35;;;;;;;45.17;24.93;;;;;;;;;;5037007;28;20203;-77
2022/03/04 02:45:03;;;;;;;42.27;23.30;;;;;;;;;;5036418;28;20204;-77
2022/03/04 02:47:32;;;;;;;49.37;24.80;;;;;;;;;;5036386;28;20216;-77
2022/03/04 02:50:00;;;;;;;45.33;23.33;;;;;;;;;;5044467;28;20208;-77
2022/03/04 02:52:28;;;;;;;46.37;23.67;;;;;;;;;;5040126;28;20265;-77
2022/03/04 02:54:57;;;;;;;43.53;23.23;;;;;;;;;;5040311;28;20214;-77
2022/03/04 02:57:26;;;;;;;44.80;23.60;;;;;;;;;;5056202;28;20227;-77
2022/03/04 02:59:55;;;;;;;44.47;23.40;;;;;;;;;;5053611;28;20281;-77
2022/03/04 03:02:23;;;;;;;43.00;22.43;;;;;;;;;;5040890;28;20199;-78
2022/03/04 03:04:52;;;;;;;45.97;23.20;;;;;;;;;;5048805;28;20258;-78
2022/03/04 03:07:21;;;;;;;39.80;22.90;;;;;;;;;;5039005;28;20578;-77
2022/03/04 03:09:49;;;;;;;42.23;22.07;;;;;;;;;;5043889;28;20204;-78
2022/03/04 03:12:18;;;;;;;42.37;22.60;;;;;;;;;;5036145;28;20560;-77
2022/03/04 03:14:47;;;;;;;41.03;22.30;;;;;;;;;;5036440;28;20695;-77
2022/03/04 03:17:16;;;;;;;38.50;22.10;;;;;;;;;;5036743;28;20307;-77
2022/03/04 03:19:44;;;;;;;43.10;23.00;;;;;;;;;;5035730;28;20207;-77
2022/03/04 03:22:14;;;;;;;41.63;22.10;;;;;;;;;;5035659;28;20681;-78
2022/03/04 03:24:42;;;;;;;38.17;21.27;;;;;;;;;;5038219;28;20200;-79
2022/03/04 03:27:11;;;;;;;38.90;22.73;;;;;;;;;;5034837;28;20686;-77
2022/03/04 03:29:39;;;;;;;38.00;22.20;;;;;;;;;;5035008;28;20208;-77
2022/03/04 03:32:11;;;;;;;41.30;23.50;;;;;;;;;;5035459;28;20215;-76
2022/03/04 03:34:39;;;;;;;36.60;21.30;;;;;;;;;;5037638;28;21776;-79
2022/03/04 03:37:09;;;;;;;40.40;22.07;;;;;;;;;;5048313;28;20220;-78
2022/03/04 03:39:38;;;;;;;35.23;21.00;;;;;;;;;;5041609;28;20596;-77
2022/03/04 03:42:07;;;;;;;33.53;20.10;;;;;;;;;;5054608;28;20210;-77
2022/03/04 03:44:36;;;;;;;41.40;22.57;;;;;;;;;;5043574;28;20206;-77
2022/03/04 03:47:05;;;;;;;39.43;22.13;;;;;;;;;;5035078;28;20278;-77
2022/03/04 03:49:34;;;;;;;41.33;23.30;;;;;;;;;;5035376;28;20562;-77
2022/03/04 03:52:03;;;;;;;48.70;27.23;;;;;;;;;;5035715;28;20212;-77
2022/03/04 03:54:31;;;;;;;52.23;27.13;;;;;;;;;;5034811;28;20204;-78
2022/03/04 03:57:00;;;;;;;52.13;26.40;;;;;;;;;;5034306;28;20721;-77
2022/03/04 03:59:28;;;;;;;48.90;25.67;;;;;;;;;;5035294;28;20200;-79
2022/03/04 04:01:58;;;;;;;39.03;23.57;;;;;;;;;;5035766;28;20214;-77
2022/03/04 04:04:27;;;;;;;44.50;24.80;;;;;;;;;;5032305;28;20694;-77
2022/03/04 04:06:57;;;;;;;44.47;24.80;;;;;;;;;;5034702;28;20227;-76
2022/03/04 04:09:26;;;;;;;49.90;27.33;;;;;;;;;;5041794;28;20207;-78
2022/03/04 04:11:54;;;;;;;49.87;25.83;;;;;;;;;;5050065;28;20204;-76
2022/03/04 04:14:23;;;;;;;49.53;24.93;;;;;;;;;;5043960;28;20203;-78
2022/03/04 04:16:51;;;;;;;44.17;24.00;;;;;;;;;;5034652;28;20231;-76
2022/03/04 04:19:19;;;;;;;42.60;23.57;;;;;;;;;;5034847;28;20686;-78
2022/03/04 04:21:48;;;;;;;37.40;21.27;;;;;;;;;;5034833;28;20208;-78
2022/03/04 04:24:17;;;;;;;32.40;19.37;;;;;;;;;;5034000;28;20204;-78
2022/03/04 04:26:46;;;;;;;34.50;19.50;;;;;;;;;;5037357;28;20684;-78
2022/03/04 04:29:15;;;;;;;39.40;22.93;;;;;;;;;;5039012;28;20200;-78
2022/03/04 04:31:43;;;;;;;41.50;23.83;;;;;;;;;;5053985;28;20535;-77
2022/03/04 04:34:12;;;;;;;35.63;21.60;;;;;;;;;;5042597;28;20669;-77
2022/03/04 04:36:40;;;;;;;39.90;23.47;;;;;;;;;;5040105;28;20298;-77
2022/03/04 04:39:09;;;;;;;40.53;23.33;;;;;;;;;;5040814;28;20228;-77
2022/03/04 04:41:39;;;;;;;38.27;21.33;;;;;;;;;;5053116;28;20253;-79
2022/03/04 04:44:07;;;;;;;37.90;21.50;;;;;;;;;;5049187;28;20199;-79
2022/03/04 04:46:35;;;;;;;38.60;21.60;;;;;;;;;;5042441;28;20277;-77
2022/03/04 04:49:04;;;;;;;39.83;24.30;;;;;;;;;;5050804;28;20662;-79
2022/03/04 04:51:32;;;;;;;43.10;23.23;;;;;;;;;;5048419;28;20208;-77
2022/03/04 04:54:01;;;;;;;42.57;23.00;;;;;;;;;;5050574;28;20212;-77
2022/03/04 04:56:29;;;;;;;37.10;22.17;;;;;;;;;;5047460;28;20733;-77
2022/03/04 04:58:59;;;;;;;30.90;18.40;;;;;;;;;;5036039;28;20220;-77
2022/03/04 05:01:28;;;;;;;27.50;15.90;;;;;;;;;;5062961;28;20205;-79
2022/03/04 05:03:56;;;;;;;23.63;15.60;;;;;;;;;;5058355;28;20210;-78
2022/03/04 05:06:25;;;;;;;25.63;15.83;;;;;;;;;;5039781;28;20231;-77
2022/03/04 05:08:59;;;;;;;28.13;16.33;;;;;;;;;;5035472;28;20204;-76
2022/03/04 05:11:27;;;;;;;34.20;20.03;;;;;;;;;;5045307;28;20206;-79
2022/03/04 05:13:56;;;;;;;36.77;22.00;;;;;;;;;;5042505;28;20220;-78
2022/03/04 05:16:26;;;;;;;32.07;19.40;;;;;;;;;;5045852;28;20287;-78
2022/03/04 05:18:54;;;;;;;34.70;20.07;;;;;;;;;;5055346;28;20250;-77
2022/03/04 05:21:22;;;;;;;34.10;19.73;;;;;;;;;;5056671;28;20226;-77
2022/03/04 05:26:34;;;;;;;30.53;19.10;;;;;;;;;;5053853;28;20235;-79
2022/03/04 05:29:04;;;;;;;27.83;17.87;;;;;;;;;;5042330;28;20210;-78
2022/03/04 05:31:34;;;;;;;28.30;17.13;;;;;;;;;;5036803;28;20254;-76
2022/03/04 05:34:03;;;;;;;28.37;17.37;;;;;;;;;;5040843;28;20210;-78
2022/03/04 05:36:32;;;;;;;27.50;18.57;;;;;;;;;;5040447;28;20227;-76
2022/03/04 05:39:01;;;;;;;27.07;16.70;;;;;;;;;;5057278;28;20742;-77
2022/03/04 05:41:29;;;;;;;29.07;17.27;;;;;;;;;;5039943;28;20209;-79
2022/03/04 05:43:57;;;;;;;25.57;15.97;;;;;;;;;;5042270;28;20611;-76
2022/03/04 05:46:26;;;;;;;25.07;16.73;;;;;;;;;;5039633;28;20574;-77
2022/03/04 05:48:57;;;;;;;26.33;17.40;;;;;;;;;;5038555;28;20200;-76
2022/03/04 05:51:25;;;;;;;29.43;17.20;;;;;;;;;;5036746;28;20240;-78
2022/03/04 05:53:54;;;;;;;27.13;17.80;;;;;;;;;;5044889;28;20608;-76
2022/03/04 05:56:23;;;;;;;26.23;17.87;;;;;;;;;;5035668;28;20220;-77
2022/03/04 05:58:51;;;;;;;29.63;18.47;;;;;;;;;;5034925;28;20253;-78
2022/03/04 06:01:20;;;;;;;25.67;17.30;;;;;;;;;;5066029;28;20205;-76
2022/03/04 06:03:49;;;;;;;24.90;17.30;;;;;;;;;;5046551;28;20529;-75
2022/03/04 06:06:20;;;;;;;29.23;17.87;;;;;;;;;;5045125;28;20240;-76
2022/03/04 06:08:49;;;;;;;26.40;18.27;;;;;;;;;;5043529;28;20604;-76
2022/03/04 06:11:18;;;;;;;26.97;17.47;;;;;;;;;;5049687;28;20195;-75
2022/03/04 06:13:47;;;;;;;27.90;17.67;;;;;;;;;;5059138;28;20206;-75
2022/03/04 06:16:15;;;;;;;30.57;17.47;;;;;;;;;;5055015;28;20585;-76
2022/03/04 06:18:44;;;;;;;27.83;18.67;;;;;;;;;;5054281;28;20219;-77
2022/03/04 06:21:12;;;;;;;28.70;18.70;;;;;;;;;;5055726;28;20233;-78
2022/03/04 06:23:42;;;;;;;32.13;20.93;;;;;;;;;;5059934;28;20195;-75
2022/03/04 06:26:11;;;;;;;33.33;20.97;;;;;;;;;;5048547;28;20232;-77
2022/03/04 06:28:39;;;;;;;34.63;21.53;;;;;;;;;;5036041;28;20199;-78
2022/03/04 06:31:07;;;;;;;31.90;21.00;;;;;;;;;;5047043;28;20214;-78
2022/03/04 06:33:38;;;;;;;37.07;23.07;;;;;;;;;;5052458;28;20259;-78
2022/03/04 06:36:08;;;;;;;36.90;22.77;;;;;;;;;;5048312;28;20225;-77
2022/03/04 06:38:38;;;;;;;38.63;24.43;;;;;;;;;;5038919;28;20216;-77
2022/03/04 06:41:08;;;;;;;36.77;24.03;;;;;;;;;;5041287;28;20228;-78
2022/03/04 06:43:37;;;;;;;39.73;24.33;;;;;;;;;;5038293;28;20232;-77
2022/03/04 06:46:06;;;;;;;39.87;24.67;;;;;;;;;;5068323;28;20220;-78
2022/03/04 06:48:36;;;;;;;37.20;24.13;;;;;;;;;;5042808;28;20210;-77
2022/03/04 06:51:05;;;;;;;41.10;26.40;;;;;;;;;;5034460;28;20274;-77
2022/03/04 06:53:34;;;;;;;39.00;24.37;;;;;;;;;;5058319;28;20199;-78
2022/03/04 06:56:02;;;;;;;43.50;26.93;;;;;;;;;;5056447;28;20227;-77
2022/03/04 06:58:32;;;;;;;46.13;27.40;;;;;;;;;;5059893;28;20211;-77
2022/03/04 07:01:01;;;;;;;43.63;27.33;;;;;;;;;;5058567;28;20189;-76
2022/03/04 07:03:30;;;;;;;42.47;25.67;;;;;;;;;;5060418;28;20204;-76
2022/03/04 07:05:58;;;;;;;43.23;26.40;;;;;;;;;;5041547;28;20212;-76
2022/03/04 07:08:27;;;;;;;41.23;26.17;;;;;;;;;;5061292;28;20260;-76
2022/03/04 07:10:56;;;;;;;46.63;28.47;;;;;;;;;;5063982;28;20192;-76
2022/03/04 07:13:25;;;;;;;43.87;26.80;;;;;;;;;;5049106;28;20236;-76
2022/03/04 07:15:55;;;;;;;42.50;26.10;;;;;;;;;;5046934;28;20198;-76
2022/03/04 07:18:24;;;;;;;45.80;28.33;;;;;;;;;;5046579;28;20216;-77
2022/03/04 07:20:52;;;;;;;49.00;29.43;;;;;;;;;;5045349;28;20247;-78
2022/03/04 07:23:21;;;;;;;47.37;28.67;;;;;;;;;;5040818;28;20202;-77
2022/03/04 07:25:49;;;;;;;48.13;29.30;;;;;;;;;;5058687;28;20221;-77
2022/03/04 07:28:18;;;;;;;49.43;28.93;;;;;;;;;;5064853;28;20212;-76
2022/03/04 07:30:46;;;;;;;52.40;31.07;;;;;;;;;;5063627;28;20659;-76
2022/03/04 07:33:16;;;;;;;50.23;30.43;;;;;;;;;;5058941;28;20234;-76
2022/03/04 07:35:45;;;;;;;52.80;31.70;;;;;;;;;;5043058;28;20211;-76
2022/03/04 07:38:14;;;;;;;48.83;30.63;;;;;;;;;;5045050;28;20218;-77
2022/03/04 07:40:44;;;;;;;57.53;33.10;;;;;;;;;;5048889;28;20252;-76
2022/03/04 07:43:13;;;;;;;51.93;31.43;;;;;;;;;;5047817;28;20211;-77
2022/03/04 07:45:41;;;;;;;52.67;32.47;;;;;;;;;;5040353;28;20205;-76
2022/03/04 07:48:10;;;;;;;53.73;32.73;;;;;;;;;;5049111;28;20205;-75
2022/03/04 07:50:40;;;;;;;56.80;33.77;;;;;;;;;;5059930;28;20255;-78
2022/03/04 07:53:08;;;;;;;54.77;32.27;;;;;;;;;;5043231;28;20618;-79
2022/03/04 07:55:37;;;;;;;54.33;32.30;;;;;;;;;;5056706;28;20209;-77
2022/03/04 07:58:05;;;;;;;57.20;33.40;;;;;;;;;;5045288;28;20199;-76
2022/03/04 08:00:34;;;;;;;55.43;34.30;;;;;;;;;;5043290;28;20231;-78
2022/03/04 08:03:02;;;;;;;63.50;35.20;;;;;;;;;;5057050;28;20202;-76
2022/03/04 08:05:31;;;;;;;53.00;31.97;;;;;;;;;;5060210;28;20221;-77
2022/03/04 08:08:00;;;;;;;54.53;31.93;;;;;;;;;;5065313;28;20226;-75
2022/03/04 08:10:30;;;;;;;49.73;30.23;;;;;;;;;;5064042;28;20201;-76
2022/03/04 08:12:58;;;;;;;52.47;30.07;;;;;;;;;;5065571;28;20205;-76
2022/03/04 08:15:27;;;;;;;47.13;28.17;;;;;;;;;;5062373;28;20235;-76
2022/03/04 08:17:55;;;;;;;48.93;29.97;;;;;;;;;;5064674;28;20230;-75
2022/03/04 08:20:26;;;;;;;44.90;27.57;;;;;;;;;;5065874;28;20222;-75
2022/03/04 08:22:57;;;;;;;42.90;26.43;;;;;;;;;;5066066;28;20191;-75
2022/03/04 08:25:27;;;;;;;43.37;26.67;;;;;;;;;;5065467;28;20203;-76
2022/03/04 08:27:56;;;;;;;41.13;25.60;;;;;;;;;;5085435;28;20229;-78
2022/03/04 08:30:24;;;;;;;47.03;27.80;;;;;;;;;;5083899;28;20210;-75
2022/03/04 08:32:53;;;;;;;41.73;26.13;;;;;;;;;;5081151;28;20267;-78
2022/03/04 08:35:21;;;;;;;37.50;24.83;;;;;;;;;;5070540;28;20207;-77
2022/03/04 08:37:49;;;;;;;40.40;25.17;;;;;;;;;;5062826;28;20222;-76
2022/03/04 08:40:18;;;;;;;40.43;25.37;;;;;;;;;;5061782;28;20233;-76
2022/03/04 08:42:48;;;;;;;38.30;23.70;;;;;;;;;;5064111;28;20624;-76
2022/03/04 08:45:17;;;;;;;39.57;24.33;;;;;;;;;;5052662;28;20234;-77
2022/03/04 08:47:46;;;;;;;39.10;22.97;;;;;;;;;;5045563;28;20254;-77
2022/03/04 08:50:16;;;;;;;34.67;22.27;;;;;;;;;;5045677;28;20206;-76
2022/03/04 08:52:45;;;;;;;35.70;22.10;;;;;;;;;;5065545;28;20203;-76
2022/03/04 08:55:15;;;;;;;34.83;22.73;;;;;;;;;;5046796;28;20200;-78
2022/03/04 08:57:44;;;;;;;35.57;23.40;;;;;;;;;;5040661;28;20254;-77
2022/03/04 09:00:14;;;;;;;35.50;22.03;;;;;;;;;;5040066;28;20239;-78
2022/03/04 09:02:43;;;;;;;32.03;21.60;;;;;;;;;;5041365;28;20643;-77
2022/03/04 09:05:12;;;;;;;32.63;21.20;;;;;;;;;;5043077;28;20209;-77
2022/03/04 09:07:40;;;;;;;35.47;22.03;;;;;;;;;;5062053;28;20223;-76
2022/03/04 09:10:09;;;;;;;32.60;23.00;;;;;;;;;;5064414;28;20207;-77
2022/03/04 09:12:38;;;;;;;33.50;22.17;;;;;;;;;;5063414;28;20264;-77
2022/03/04 09:15:08;;;;;;;34.33;22.50;;;;;;;;;;5061494;28;20201;-76
2022/03/04 09:17:39;;;;;;;33.13;22.67;;;;;;;;;;5062873;28;20223;-77
2022/03/04 09:20:08;;;;;;;34.93;21.90;;;;;;;;;;5063074;28;20251;-78
2022/03/04 09:22:37;;;;;;;29.97;20.77;;;;;;;;;;5054614;28;20673;-80
2022/03/04 09:25:06;;;;;;;30.83;19.97;;;;;;;;;;5062557;28;20217;-77
2022/03/04 09:27:34;;;;;;;29.47;20.00;;;;;;;;;;5063022;28;20231;-77
2022/03/04 09:30:02;;;;;;;31.97;20.40;;;;;;;;;;5050936;28;20200;-76
2022/03/04 09:32:31;;;;;;;30.37;19.13;;;;;;;;;;5052079;28;20236;-76
2022/03/04 09:35:01;;;;;;;29.40;19.07;;;;;;;;;;5049741;28;20269;-78
2022/03/04 09:37:29;;;;;;;29.87;20.23;;;;;;;;;;5043074;28;20222;-78
2022/03/04 09:39:57;;;;;;;28.57;19.97;;;;;;;;;;5056860;28;20234;-76
2022/03/04 09:42:26;;;;;;;29.30;19.27;;;;;;;;;;5063641;28;20218;-76
2022/03/04 09:44:54;;;;;;;28.80;19.93;;;;;;;;;;5046188;28;20596;-77
2022/03/04 09:47:23;;;;;;;31.10;21.27;;;;;;;;;;5044530;28;20230;-76
2022/03/04 09:49:52;;;;;;;31.50;20.87;;;;;;;;;;5042221;28;20284;-76
2022/03/04 09:52:22;;;;;;;33.83;22.47;;;;;;;;;;5038657;28;20211;-77
2022/03/04 09:54:51;;;;;;;32.57;21.97;;;;;;;;;;5045409;28;20191;-77
2022/03/04 09:57:20;;;;;;;31.50;20.60;;;;;;;;;;5057454;28;20701;-77
2022/03/04 09:59:48;;;;;;;31.20;21.00;;;;;;;;;;5056079;28;20562;-78
2022/03/04 10:02:17;;;;;;;30.03;20.00;;;;;;;;;;5056538;28;20325;-78
2022/03/04 10:04:46;;;;;;;30.43;20.83;;;;;;;;;;5046332;28;20246;-76
2022/03/04 10:07:15;;;;;;;31.13;20.47;;;;;;;;;;5036918;28;20230;-77
2022/03/04 10:09:46;;;;;;;33.47;22.47;;;;;;;;;;5047173;28;20260;-78
2022/03/04 10:12:15;;;;;;;34.83;23.30;;;;;;;;;;5053991;28;20220;-77
2022/03/04 10:14:57;;;;;;;32.10;21.37;;;;;;;;;;5059869;28;20206;-80
2022/03/04 10:17:30;;;;;;;33.20;21.70;;;;;;;;;;5041326;28;20642;-78
2022/03/04 10:19:59;;;;;;;34.87;23.63;;;;;;;;;;5042375;28;20215;-76
2022/03/04 10:22:35;;;;;;;33.13;21.53;;;;;;;;;;5035622;28;20234;-77
2022/03/04 10:25:14;;;;;;;36.07;23.30;;;;;;;;;;5036423;28;20195;-77
2022/03/04 10:27:42;;;;;;;33.67;22.77;;;;;;;;;;5035316;28;20227;-76
2022/03/04 10:30:11;;;;;;;31.90;21.93;;;;;;;;;;5035118;28;20218;-79
2022/03/04 10:32:39;;;;;;;30.70;20.57;;;;;;;;;;5034396;28;20204;-76
2022/03/04 10:35:09;;;;;;;32.67;21.83;;;;;;;;;;5050772;28;20233;-78
2022/03/04 10:37:42;;;;;;;34.63;20.27;;;;;;;;;;5042889;28;20235;-75
2022/03/04 10:40:12;;;;;;;28.20;19.67;;;;;;;;;;5063783;28;20211;-77
2022/03/04 10:42:43;;;;;;;29.17;19.97;;;;;;;;;;5066201;28;20213;-75
2022/03/04 10:45:12;;;;;;;28.43;19.07;;;;;;;;;;5065948;28;20650;-76
2022/03/04 10:47:42;;;;;;;30.13;20.03;;;;;;;;;;5062649;28;20231;-75
2022/03/04 10:50:13;;;;;;;26.93;19.97;;;;;;;;;;5064582;28;20563;-77
2022/03/04 10:52:58;;;;;;;27.03;20.20;;;;;;;;;;5064890;28;20203;-76
2022/03/04 10:55:32;;;;;;;29.73;19.93;;;;;;;;;;5062235;28;20233;-75
2022/03/04 10:58:02;;;;;;;26.37;18.50;;;;;;;;;;5047014;28;20247;-78
2022/03/04 11:00:31;;;;;;;23.77;17.23;;;;;;;;;;5042869;28;20212;-75
2022/03/04 11:03:00;;;;;;;23.67;17.47;;;;;;;;;;5056472;28;20199;-76
2022/03/04 11:05:30;;;;;;;25.10;17.70;;;;;;;;;;5050380;28;20203;-76
2022/03/04 11:07:59;;;;;;;25.23;17.70;;;;;;;;;;5043265;28;20231;-78
2022/03/04 11:10:27;;;;;;;25.27;18.47;;;;;;;;;;5060420;28;20211;-75
2022/03/04 11:12:57;;;;;;;25.60;17.97;;;;;;;;;;5063073;28;20245;-77
2022/03/04 11:15:26;;;;;;;26.40;18.40;;;;;;;;;;5059944;28;20203;-75
2022/03/04 11:17:54;;;;;;;25.27;18.00;;;;;;;;;;5044058;28;20722;-75
2022/03/04 11:20:23;;;;;;;24.33;18.03;;;;;;;;;;5044565;28;20233;-76
2022/03/04 11:22:52;;;;;;;27.53;18.80;;;;;;;;;;5061313;28;20215;-76
2022/03/04 11:25:22;;;;;;;26.47;18.33;;;;;;;;;;5062200;28;20229;-75
2022/03/04 11:27:53;;;;;;;24.90;17.57;;;;;;;;;;5045183;28;20597;-76
2022/03/04 11:30:33;;;;;;;26.97;18.90;;;;;;;;;;5041843;28;20265;-75
2022/03/04 11:33:06;;;;;;;28.93;19.50;;;;;;;;;;5061075;28;20211;-76
2022/03/04 11:35:36;;;;;;;27.07;19.57;;;;;;;;;;5063207;28;20325;-76
2022/03/04 11:38:05;;;;;;;25.40;19.33;;;;;;;;;;5045884;28;20245;-76
2022/03/04 11:40:35;;;;;;;28.33;20.47;;;;;;;;;;5061751;28;20269;-77
2022/03/04 11:43:06;;;;;;;29.73;21.37;;;;;;;;;;5066256;28;20231;-76
2022/03/04 11:45:37;;;;;;;28.70;21.73;;;;;;;;;;5064346;28;20199;-77
2022/03/04 11:48:08;;;;;;;29.17;21.17;;;;;;;;;;5064488;28;20203;-77
2022/03/04 11:50:37;;;;;;;32.60;23.13;;;;;;;;;;5064745;28;20210;-77
2022/03/04 11:53:12;;;;;;;29.93;20.87;;;;;;;;;;5063505;28;20226;-77
2022/03/04 11:55:40;;;;;;;32.83;22.40;;;;;;;;;;5078789;28;20722;-76
2022/03/04 11:58:09;;;;;;;29.37;21.73;;;;;;;;;;5080999;28;20202;-76
2022/03/04 12:00:39;;;;;;;30.40;21.83;;;;;;;;;;5055518;28;20253;-76
2022/03/04 12:03:18;;;;;;;27.07;20.80;;;;;;;;;;5061883;28;20203;-77
2022/03/04 12:05:52;;;;;;;30.33;21.60;;;;;;;;;;5049522;28;20267;-76
2022/03/04 12:08:20;;;;;;;30.07;21.17;;;;;;;;;;5040574;28;20238;-75
2022/03/04 12:10:52;;;;;;;27.63;20.70;;;;;;;;;;5059438;28;20203;-77
2022/03/04 12:13:31;;;;;;;26.33;18.77;;;;;;;;;;5057987;28;20205;-80
2022/03/04 12:16:03;;;;;;;26.33;20.00;;;;;;;;;;5057643;28;20731;-77
2022/03/04 12:18:36;;;;;;;25.80;19.57;;;;;;;;;;5059786;28;20203;-76
2022/03/04 12:21:07;;;;;;;29.07;20.37;;;;;;;;;;5061491;28;20210;-79
2022/03/04 12:23:37;;;;;;;23.70;17.90;;;;;;;;;;5057804;28;20230;-77
2022/03/04 12:26:25;;;;;;;26.77;19.57;;;;;;;;;;5039717;28;20222;-77
2022/03/04 12:29:02;;;;;;;26.70;19.03;;;;;;;;;;5037087;28;20254;-77
2022/03/04 12:31:39;;;;;;;23.37;18.23;;;;;;;;;;5047009;28;20199;-78
2022/03/04 12:34:16;;;;;;;22.43;17.43;;;;;;;;;;5052701;28;20212;-77
2022/03/04 12:36:45;;;;;;;24.50;18.13;;;;;;;;;;5048497;28;20215;-77
2022/03/04 12:39:17;;;;;;;23.53;18.00;;;;;;;;;;5058234;28;20254;-77
2022/03/04 12:41:45;;;;;;;22.13;16.97;;;;;;;;;;5056990;28;20203;-77
2022/03/04 12:44:14;;;;;;;22.87;16.63;;;;;;;;;;5045085;28;20207;-79
2022/03/04 12:46:44;;;;;;;19.80;15.30;;;;;;;;;;5056003;28;20223;-78
2022/03/04 12:49:15;;;;;;;16.70;12.80;;;;;;;;;;5047496;28;20195;-77
2022/03/04 12:51:45;;;;;;;15.57;11.60;;;;;;;;;;5036638;28;20235;-80
2022/03/04 12:54:16;;;;;;;13.30;10.13;;;;;;;;;;5036156;28;20204;-77
2022/03/04 12:56:50;;;;;;;15.30;11.67;;;;;;;;;;5036055;28;20224;-78
2022/03/04 12:59:19;;;;;;;17.50;12.30;;;;;;;;;;5044057;28;20202;-78
2022/03/04 13:01:50;;;;;;;16.47;11.53;;;;;;;;;;5038763;28;20200;-77
2022/03/04 13:04:19;;;;;;;14.43;10.43;;;;;;;;;;5043572;28;20278;-76
2022/03/04 13:06:48;;;;;;;14.63;10.83;;;;;;;;;;5054476;28;20702;-76
2022/03/04 13:09:17;;;;;;;14.63;11.67;;;;;;;;;;5049213;28;20204;-78
2022/03/04 13:11:45;;;;;;;14.17;11.30;;;;;;;;;;5041882;28;20712;-76
2022/03/04 13:14:14;;;;;;;16.07;12.43;;;;;;;;;;5041535;28;20203;-78
2022/03/04 13:16:44;;;;;;;15.83;11.63;;;;;;;;;;5054749;28;20223;-76
2022/03/04 13:19:16;;;;;;;12.47;10.77;;;;;;;;;;5041262;28;20207;-78
2022/03/04 13:21:46;;;;;;;13.23;9.67;;;;;;;;;;5035631;28;20188;-77
2022/03/04 13:24:17;;;;;;;11.57;9.80;;;;;;;;;;5036640;28;20208;-77
2022/03/04 13:26:50;;;;;;;12.13;9.57;;;;;;;;;;5036298;28;20587;-76
2022/03/04 13:29:19;;;;;;;12.63;9.80;;;;;;;;;;5043702;28;20204;-78
2022/03/04 13:31:48;;;;;;;13.53;9.27;;;;;;;;;;5070040;28;20211;-76
2022/03/04 13:34:28;;;;;;;10.90;8.27;;;;;;;;;;5060971;28;20226;-76
2022/03/04 13:37:00;;;;;;;11.87;8.70;;;;;;;;;;5052007;28;20218;-76
2022/03/04 13:39:30;;;;;;;9.67;7.77;;;;;;;;;;5064073;28;20572;-75
2022/03/04 13:42:11;;;;;;;11.20;8.50;;;;;;;;;;5066595;28;20210;-75
2022/03/04 13:44:57;;;;;;;11.03;8.10;;;;;;;;;;5063332;28;20203;-76
2022/03/04 13:47:34;;;;;;;10.00;7.33;;;;;;;;;;5058466;28;20219;-76
2022/03/04 13:50:04;;;;;;;10.00;7.40;;;;;;;;;;5063187;28;20218;-76
2022/03/04 13:52:50;;;;;;;10.60;7.80;;;;;;;;;;5080414;28;20232;-75
2022/03/04 13:55:19;;;;;;;10.87;7.23;;;;;;;;;;5051852;28;20661;-77
2022/03/04 13:57:47;;;;;;;11.07;7.20;;;;;;;;;;5048962;28;20223;-76
2022/03/04 14:00:17;;;;;;;9.20;6.47;;;;;;;;;;5065252;28;20643;-74
2022/03/04 14:02:51;;;;;;;9.43;7.00;;;;;;;;;;5064850;28;20205;-76
2022/03/04 14:05:28;;;;;;;9.63;6.67;;;;;;;;;;5054500;28;20294;-75
2022/03/04 14:08:02;;;;;;;11.13;6.70;;;;;;;;;;5050135;28;20229;-77
2022/03/04 14:10:35;;;;;;;9.10;6.90;;;;;;;;;;5065597;28;20201;-75
2022/03/04 14:13:04;;;;;;;10.07;6.60;;;;;;;;;;5065421;28;20207;-75
2022/03/04 14:15:34;;;;;;;9.47;6.57;;;;;;;;;;5072267;28;20205;-77
2022/03/04 14:18:05;;;;;;;11.33;7.20;;;;;;;;;;5064886;28;20246;-75
2022/03/04 14:20:35;;;;;;;9.27;6.83;;;;;;;;;;5059226;28;20200;-76
2022/03/04 14:23:04;;;;;;;9.77;7.47;;;;;;;;;;5067063;28;20247;-76
2022/03/04 14:25:33;;;;;;;8.80;7.20;;;;;;;;;;5065774;28;20213;-75
2022/03/04 14:28:02;;;;;;;12.97;8.17;;;;;;;;;;5082274;28;20217;-76
2022/03/04 14:30:33;;;;;;;12.87;7.47;;;;;;;;;;5081251;28;20206;-76
2022/03/04 14:33:02;;;;;;;10.53;6.93;;;;;;;;;;5058633;28;20215;-75
2022/03/04 14:35:31;;;;;;;9.87;7.27;;;;;;;;;;5050703;28;20211;-76